createdAt,value
2018-03-28T00:00:04.189Z,8.40
2018-03-28T00:02:31.028Z,7.80
2018-03-28T00:04:58.087Z,8.20
2018-03-28T00:07:25.033Z,11.33
2018-03-28T00:09:52.802Z,10.80
2018-03-28T00:12:19.838Z,10.40
2018-03-28T00:14:46.896Z,7.17
2018-03-28T00:17:13.946Z,6.10
2018-03-28T00:19:40.882Z,8.03
2018-03-28T00:22:07.934Z,7.27
2018-03-28T00:24:34.981Z,5.70
2018-03-28T00:27:02.144Z,7.30
2018-03-28T00:29:29.192Z,6.77
2018-03-28T00:31:56.129Z,6.40
2018-03-28T00:34:23.077Z,6.73
2018-03-28T00:36:50.126Z,6.77
2018-03-28T00:39:16.971Z,5.73
2018-03-28T00:41:44.030Z,6.40
2018-03-28T00:44:11.081Z,7.40
2018-03-28T00:46:39.861Z,7.37
2018-03-28T00:49:06.910Z,6.27
2018-03-28T00:51:36.836Z,7.07
2018-03-28T00:54:03.885Z,7.03
2018-03-28T00:56:30.934Z,6.03
2018-03-28T00:58:57.982Z,6.47
2018-03-28T01:01:25.135Z,7.77
2018-03-28T01:03:52.690Z,8.27
2018-03-28T01:06:19.635Z,7.27
2018-03-28T01:08:46.583Z,7.43
2018-03-28T01:11:13.634Z,6.80
2018-03-28T01:13:40.581Z,7.83
2018-03-28T01:16:07.971Z,8.03
2018-03-28T01:18:35.701Z,8.93
2018-03-28T01:21:02.545Z,8.97
2018-03-28T01:23:29.492Z,9.40
2018-03-28T01:25:56.442Z,9.80
2018-03-28T01:28:23.492Z,9.00
2018-03-28T01:30:50.539Z,7.97
2018-03-28T01:33:17.358Z,7.30
2018-03-28T01:35:44.235Z,8.37
2018-03-28T01:38:11.286Z,9.17
2018-03-28T01:40:38.226Z,8.17
2018-03-28T01:43:05.175Z,7.60
2018-03-28T01:45:32.222Z,7.17
2018-03-28T01:47:59.273Z,6.43
2018-03-28T01:50:26.319Z,7.27
2018-03-28T01:52:53.367Z,6.93
2018-03-28T01:55:20.538Z,9.63
2018-03-28T01:57:47.569Z,9.60
2018-03-28T02:00:14.628Z,7.30
2018-03-28T02:02:41.671Z,8.07
2018-03-28T02:05:08.615Z,9.10
2018-03-28T02:07:35.459Z,8.67
2018-03-28T02:10:02.308Z,7.33
2018-03-28T02:12:29.252Z,6.20
2018-03-28T02:14:56.310Z,8.43
2018-03-28T02:17:23.352Z,7.77
2018-03-28T02:19:50.307Z,6.83
2018-03-28T02:22:17.348Z,8.73
2018-03-28T02:27:36.494Z,8.03
2018-03-28T02:30:03.687Z,7.80
2018-03-28T02:32:30.745Z,9.37
2018-03-28T02:34:57.692Z,7.20
2018-03-28T02:37:24.740Z,6.63
2018-03-28T02:39:51.791Z,6.83
2018-03-28T02:42:18.730Z,7.33
2018-03-28T02:44:45.777Z,6.43
2018-03-28T02:47:12.837Z,6.83
2018-03-28T02:49:39.886Z,6.27
2018-03-28T02:52:06.826Z,6.83
2018-03-28T02:54:33.774Z,7.77
2018-03-28T02:57:00.620Z,9.90
2018-03-28T02:59:27.667Z,7.00
2018-03-28T03:01:54.724Z,6.93
2018-03-28T03:04:21.769Z,7.40
2018-03-28T03:06:48.814Z,6.77
2018-03-28T03:09:15.973Z,7.90
2018-03-28T03:11:42.808Z,10.50
2018-03-28T03:14:09.857Z,8.40
2018-03-28T03:16:36.910Z,6.03
2018-03-28T03:19:03.857Z,5.87
2018-03-28T03:21:30.918Z,7.87
2018-03-28T03:23:57.958Z,6.67
2018-03-28T03:26:24.935Z,6.03
2018-03-28T03:28:52.779Z,7.00
2018-03-28T03:31:19.828Z,6.53
2018-03-28T03:33:46.870Z,8.83
2018-03-28T03:36:13.927Z,10.83
2018-03-28T03:38:41.697Z,10.13
2018-03-28T03:41:08.528Z,8.27
2018-03-28T03:43:35.580Z,8.43
2018-03-28T03:46:02.526Z,6.80
2018-03-28T03:48:29.386Z,8.50
2018-03-28T03:50:56.185Z,8.07
2018-03-28T03:53:23.172Z,7.20
2018-03-28T03:55:50.220Z,6.67
2018-03-28T03:58:17.266Z,7.53
2018-03-28T04:00:44.311Z,9.07
2018-03-28T04:03:11.368Z,8.27
2018-03-28T04:05:38.407Z,7.87
2018-03-28T04:08:05.568Z,6.60
2018-03-28T04:10:32.615Z,5.90
2018-03-28T04:12:59.558Z,6.27
2018-03-28T04:15:26.720Z,6.60
2018-03-28T04:17:53.552Z,6.80
2018-03-28T04:20:20.694Z,8.47
2018-03-28T04:22:48.473Z,7.37
2018-03-28T04:25:15.523Z,9.40
2018-03-28T04:27:42.499Z,9.80
2018-03-28T04:30:10.829Z,8.27
2018-03-28T04:32:38.743Z,7.60
2018-03-28T04:35:05.639Z,6.47
2018-03-28T04:37:32.610Z,8.10
2018-03-28T04:39:59.575Z,6.87
2018-03-28T04:42:26.447Z,6.57
2018-03-28T04:44:54.172Z,7.53
2018-03-28T04:47:21.116Z,6.47
2018-03-28T04:49:48.175Z,6.43
2018-03-28T04:52:15.219Z,6.90
2018-03-28T04:54:42.170Z,7.47
2018-03-28T04:57:09.109Z,7.67
2018-03-28T04:59:36.166Z,7.60
2018-03-28T05:02:03.215Z,8.07
2018-03-28T05:04:30.269Z,11.00
2018-03-28T05:06:57.308Z,10.17
2018-03-28T05:09:24.154Z,9.00
2018-03-28T05:11:51.210Z,9.47
2018-03-28T05:14:25.460Z,9.83
2018-03-28T05:16:53.184Z,10.43
2018-03-28T05:19:20.108Z,8.30
2018-03-28T05:21:47.192Z,9.30
2018-03-28T05:24:14.263Z,10.83
2018-03-28T05:26:41.895Z,8.40
2018-03-28T05:29:08.970Z,9.30
2018-03-28T05:31:36.097Z,7.93
2018-03-28T05:34:03.146Z,8.67
2018-03-28T05:36:30.192Z,8.13
2018-03-28T05:38:57.148Z,10.30
2018-03-28T05:41:24.062Z,11.93
2018-03-28T05:43:51.762Z,9.40
2018-03-28T05:46:18.701Z,9.40
2018-03-28T05:48:45.653Z,9.63
2018-03-28T05:51:12.608Z,15.43
2018-03-28T05:53:39.545Z,27.33
2018-03-28T05:56:06.489Z,25.77
2018-03-28T05:58:33.432Z,24.10
2018-03-28T06:01:00.381Z,27.67
2018-03-28T06:03:27.331Z,27.23
2018-03-28T06:05:54.380Z,29.97
2018-03-28T06:08:21.387Z,26.00
2018-03-28T06:10:49.094Z,30.70
2018-03-28T06:13:16.142Z,28.93
2018-03-28T06:15:43.197Z,23.07
2018-03-28T06:18:10.241Z,19.47
2018-03-28T06:20:37.183Z,19.77
2018-03-28T06:23:04.134Z,16.67
2018-03-28T06:25:31.055Z,17.30
2018-03-28T06:27:57.904Z,18.23
2018-03-28T06:30:25.007Z,19.63
2018-03-28T06:32:52.845Z,20.07
2018-03-28T06:35:19.921Z,23.40
2018-03-28T06:37:47.666Z,22.33
2018-03-28T06:40:14.710Z,23.97
2018-03-28T06:42:41.551Z,22.00
2018-03-28T06:45:08.603Z,18.57
2018-03-28T06:47:35.444Z,18.50
2018-03-28T06:50:02.607Z,21.20
2018-03-28T06:52:29.656Z,21.47
2018-03-28T06:54:56.696Z,26.97
2018-03-28T06:57:23.756Z,28.97
2018-03-28T06:59:50.800Z,28.23
2018-03-28T07:02:17.745Z,28.80
2018-03-28T07:04:44.801Z,26.80
2018-03-28T07:07:11.843Z,22.60
2018-03-28T07:09:38.792Z,19.43
2018-03-28T07:12:05.848Z,22.20
2018-03-28T07:14:47.374Z,29.33
2018-03-28T07:17:15.096Z,30.70
2018-03-28T07:19:42.151Z,52.23
2018-03-28T07:22:09.206Z,46.93
2018-03-28T07:24:36.241Z,49.20
2018-03-28T07:27:03.400Z,51.13
2018-03-28T07:29:30.452Z,46.87
2018-03-28T07:31:57.491Z,37.20
2018-03-28T07:34:24.549Z,47.07
2018-03-28T07:36:51.594Z,46.80
2018-03-28T07:39:18.640Z,46.83
2018-03-28T07:41:45.485Z,47.20
2018-03-28T07:44:12.543Z,50.33
2018-03-28T07:46:39.479Z,42.40
2018-03-28T07:49:06.538Z,42.83
2018-03-28T07:51:33.482Z,45.27
2018-03-28T07:54:01.245Z,38.10
2018-03-28T07:56:28.062Z,40.47
2018-03-28T07:58:55.140Z,38.60
2018-03-28T08:01:22.188Z,42.40
2018-03-28T08:03:49.235Z,42.03
2018-03-28T08:06:16.182Z,120.83
2018-03-28T08:08:43.234Z,73.33
2018-03-28T08:11:14.193Z,93.40
2018-03-28T08:13:42.658Z,50.40
2018-03-28T08:16:09.715Z,47.53
2018-03-28T08:18:36.652Z,55.07
2018-03-28T08:21:03.602Z,40.07
2018-03-28T08:23:31.374Z,32.97
2018-03-28T08:25:59.134Z,41.00
2018-03-28T08:28:26.180Z,38.67
2018-03-28T08:30:53.240Z,39.10
2018-03-28T08:33:20.070Z,42.13
2018-03-28T08:35:46.923Z,34.30
2018-03-28T08:38:13.980Z,31.00
2018-03-28T08:40:40.836Z,26.93
2018-03-28T08:43:07.772Z,24.03
2018-03-28T08:45:34.743Z,30.70
2018-03-28T08:48:02.476Z,33.67
2018-03-28T08:50:29.423Z,33.23
2018-03-28T08:52:56.471Z,28.13
2018-03-28T08:55:23.622Z,41.67
2018-03-28T08:57:50.572Z,27.30
2018-03-28T09:00:17.632Z,29.47
2018-03-28T09:02:44.463Z,27.03
2018-03-28T09:05:11.625Z,21.63
2018-03-28T09:07:38.674Z,26.10
2018-03-28T09:10:05.604Z,28.33
2018-03-28T09:12:32.562Z,26.37
2018-03-28T09:15:12.245Z,21.70
2018-03-28T09:17:39.868Z,30.17
2018-03-28T09:20:06.919Z,26.97
2018-03-28T09:22:33.760Z,20.63
2018-03-28T09:25:00.820Z,18.17
2018-03-28T09:27:27.863Z,17.17
2018-03-28T09:29:54.707Z,16.63
2018-03-28T09:32:21.663Z,23.73
2018-03-28T09:34:48.711Z,16.90
2018-03-28T09:37:15.648Z,13.13
2018-03-28T09:39:42.581Z,13.23
2018-03-28T09:42:09.560Z,13.27
2018-03-28T09:44:36.594Z,11.87
2018-03-28T09:47:03.646Z,10.57
2018-03-28T09:49:30.630Z,16.87
2018-03-28T09:51:58.287Z,13.60
2018-03-28T09:54:26.031Z,11.80
2018-03-28T09:56:53.071Z,12.43
2018-03-28T09:59:20.126Z,19.13
2018-03-28T10:01:52.904Z,13.60
2018-03-28T10:04:19.822Z,12.10
2018-03-28T10:06:46.903Z,15.83
2018-03-28T10:09:14.003Z,16.93
2018-03-28T10:11:41.612Z,16.13
2018-03-28T10:14:08.660Z,15.90
2018-03-28T10:16:35.719Z,15.27
2018-03-28T10:19:03.485Z,16.63
2018-03-28T10:21:30.533Z,16.47
2018-03-28T10:23:57.583Z,15.30
2018-03-28T10:26:24.633Z,14.23
2018-03-28T10:28:52.391Z,11.63
2018-03-28T10:31:19.442Z,14.97
2018-03-28T10:33:46.515Z,11.63
2018-03-28T10:36:14.360Z,17.47
2018-03-28T10:38:41.305Z,13.60
2018-03-28T10:41:08.370Z,15.90
2018-03-28T10:43:51.900Z,17.00
2018-03-28T10:46:18.833Z,15.50
2018-03-28T10:48:45.895Z,17.60
2018-03-28T10:51:12.934Z,15.53
2018-03-28T10:53:39.989Z,13.60
2018-03-28T10:56:06.832Z,12.47
2018-03-28T10:58:33.888Z,8.97
2018-03-28T11:01:01.545Z,13.33
2018-03-28T11:03:28.492Z,13.27
2018-03-28T11:05:55.549Z,12.90
2018-03-28T11:08:22.385Z,16.37
2018-03-28T11:10:49.435Z,13.20
2018-03-28T11:13:16.380Z,13.47
2018-03-28T11:15:43.739Z,17.60
2018-03-28T11:18:10.797Z,15.47
2018-03-28T11:20:37.838Z,16.50
2018-03-28T11:23:04.896Z,14.87
2018-03-28T11:25:32.653Z,14.90
2018-03-28T11:27:59.679Z,9.07
2018-03-28T11:30:26.749Z,11.37
2018-03-28T11:32:53.802Z,7.97
2018-03-28T11:35:20.858Z,11.57
2018-03-28T11:37:47.798Z,9.83
2018-03-28T11:40:15.155Z,11.50
2018-03-28T11:42:42.202Z,8.90
2018-03-28T11:45:09.878Z,12.73
2018-03-28T11:47:36.861Z,20.30
2018-03-28T11:50:03.865Z,15.43
2018-03-28T11:52:30.707Z,10.37
2018-03-28T11:54:57.653Z,17.20
2018-03-28T11:57:24.706Z,12.33
2018-03-28T11:59:51.762Z,11.10
2018-03-28T12:02:18.804Z,10.00
2018-03-28T12:04:45.857Z,10.63
2018-03-28T12:07:12.792Z,9.33
2018-03-28T12:09:39.732Z,6.73
2018-03-28T12:12:06.803Z,8.70
2018-03-28T12:14:53.139Z,10.63
2018-03-28T12:17:20.868Z,6.87
2018-03-28T12:19:47.810Z,9.00
2018-03-28T12:22:29.484Z,6.50
2018-03-28T12:24:56.380Z,8.23
2018-03-28T12:27:24.218Z,6.83
2018-03-28T12:29:51.165Z,6.83
2018-03-28T12:32:18.214Z,7.80
2018-03-28T12:34:45.055Z,7.73
2018-03-28T12:37:12.116Z,6.83
2018-03-28T12:39:39.158Z,8.83
2018-03-28T12:42:06.224Z,4.97
2018-03-28T12:44:33.256Z,6.20
2018-03-28T12:47:00.313Z,5.83
2018-03-28T12:49:27.355Z,5.97
2018-03-28T12:51:54.434Z,9.33
2018-03-28T12:54:22.080Z,6.23
2018-03-28T12:56:49.022Z,6.87
2018-03-28T12:59:16.061Z,8.77
2018-03-28T13:01:42.909Z,8.87
2018-03-28T13:04:09.967Z,5.10
2018-03-28T13:06:36.903Z,5.87
2018-03-28T13:09:04.094Z,6.17
2018-03-28T13:11:31.721Z,8.13
2018-03-28T13:13:58.669Z,5.83
2018-03-28T13:16:25.820Z,5.43
2018-03-28T13:18:53.618Z,5.43
2018-03-28T13:21:21.359Z,10.00
2018-03-28T13:23:48.399Z,8.07
2018-03-28T13:26:15.246Z,8.30
2018-03-28T13:28:42.193Z,8.07
2018-03-28T13:31:09.344Z,6.87
2018-03-28T13:33:36.393Z,9.10
2018-03-28T13:36:03.443Z,8.27
2018-03-28T13:38:30.492Z,7.47
2018-03-28T13:40:57.544Z,7.63
2018-03-28T13:43:24.591Z,5.40
2018-03-28T13:45:51.667Z,5.53
2018-03-28T13:48:19.213Z,5.17
2018-03-28T13:50:46.148Z,4.37
2018-03-28T13:53:13.095Z,5.30
2018-03-28T13:55:40.145Z,4.63
2018-03-28T13:58:07.193Z,5.47
2018-03-28T14:00:34.017Z,5.83
2018-03-28T14:03:01.200Z,6.93
2018-03-28T14:05:28.185Z,8.17
2018-03-28T14:07:55.911Z,6.93
2018-03-28T14:10:23.057Z,7.57
2018-03-28T14:12:50.017Z,10.70
2018-03-28T14:18:21.282Z,7.43
2018-03-28T14:20:48.333Z,5.50
2018-03-28T14:23:15.371Z,6.57
2018-03-28T14:25:42.421Z,9.83
2018-03-28T14:28:09.368Z,8.03
2018-03-28T14:30:36.196Z,5.57
2018-03-28T14:33:03.266Z,12.00
2018-03-28T14:35:30.316Z,7.53
2018-03-28T14:37:57.376Z,10.57
2018-03-28T14:40:24.926Z,8.87
2018-03-28T14:42:54.584Z,10.13
2018-03-28T14:45:19.691Z,11.20
2018-03-28T14:47:46.697Z,8.07
2018-03-28T14:50:14.996Z,9.50
2018-03-28T14:52:42.735Z,10.80
2018-03-28T14:55:09.804Z,7.77
2018-03-28T14:57:36.776Z,10.70
2018-03-28T15:00:03.879Z,6.73
2018-03-28T15:02:31.045Z,6.43
2018-03-28T15:04:58.909Z,7.47
2018-03-28T15:07:25.856Z,8.03
2018-03-28T15:09:52.799Z,6.70
2018-03-28T15:12:19.749Z,7.13
2018-03-28T15:15:13.649Z,7.40
2018-03-28T15:17:41.399Z,8.50
2018-03-28T15:20:08.338Z,5.80
2018-03-28T15:22:35.393Z,6.30
2018-03-28T15:25:02.434Z,6.90
2018-03-28T15:30:24.219Z,6.53
2018-03-28T15:32:52.051Z,5.70
2018-03-28T15:35:19.102Z,5.87
2018-03-28T15:37:46.156Z,5.47
2018-03-28T15:40:14.148Z,3.70
2018-03-28T15:42:41.168Z,7.70
2018-03-28T15:45:08.120Z,5.90
2018-03-28T15:47:35.044Z,6.67
2018-03-28T15:50:02.738Z,4.33
2018-03-28T15:52:29.680Z,6.60
2018-03-28T15:54:56.722Z,5.87
2018-03-28T15:57:23.780Z,5.37
2018-03-28T15:59:50.613Z,6.37
2018-03-28T16:02:17.679Z,5.90
2018-03-28T16:04:44.730Z,9.87
2018-03-28T16:07:11.773Z,7.23
2018-03-28T16:09:38.829Z,5.90
2018-03-28T16:12:06.095Z,5.70
2018-03-28T16:14:47.388Z,6.23
2018-03-28T16:17:15.670Z,6.37
2018-03-28T16:19:43.633Z,5.63
2018-03-28T16:22:11.716Z,7.40
2018-03-28T16:24:39.814Z,7.20
2018-03-28T16:27:12.925Z,7.83
2018-03-28T16:29:40.444Z,6.87
2018-03-28T16:32:09.029Z,10.63
2018-03-28T16:34:39.877Z,13.27
2018-03-28T16:37:07.863Z,12.63
2018-03-28T16:39:35.629Z,9.80
2018-03-28T16:42:03.165Z,10.60
2018-03-28T16:44:31.129Z,11.13
2018-03-28T16:46:59.413Z,8.27
2018-03-28T16:49:27.482Z,10.93
2018-03-28T16:51:55.967Z,8.70
2018-03-28T16:54:24.033Z,8.27
2018-03-28T16:56:52.218Z,11.73
2018-03-28T16:59:20.598Z,16.07
2018-03-28T17:01:49.137Z,13.70
2018-03-28T17:04:17.378Z,13.40
2018-03-28T17:06:45.878Z,12.37
2018-03-28T17:09:13.418Z,13.97
2018-03-28T17:11:44.525Z,13.00
2018-03-28T17:14:12.105Z,14.63
2018-03-28T17:16:50.634Z,11.40
2018-03-28T17:19:19.009Z,9.73
2018-03-28T17:21:47.521Z,10.33
2018-03-28T17:24:15.879Z,14.00
2018-03-28T17:26:44.262Z,14.27
2018-03-28T17:29:13.262Z,14.90
2018-03-28T17:31:41.969Z,12.87
2018-03-28T17:34:09.706Z,9.43
2018-03-28T17:36:38.200Z,12.23
2018-03-28T17:39:06.486Z,13.03
2018-03-28T17:41:34.911Z,10.67
2018-03-28T17:44:02.517Z,10.53
2018-03-28T17:46:30.892Z,14.50
2018-03-28T17:48:59.179Z,16.03
2018-03-28T17:51:27.446Z,11.03
2018-03-28T17:53:55.728Z,14.17
2018-03-28T17:56:23.570Z,11.20
2018-03-28T17:58:51.713Z,14.60
2018-03-28T18:01:18.983Z,19.83
2018-03-28T18:03:46.385Z,18.33
2018-03-28T18:06:14.582Z,17.87
2018-03-28T18:08:41.910Z,13.60
2018-03-28T18:11:11.404Z,10.53
2018-03-28T18:13:38.748Z,16.90
2018-03-28T18:19:24.008Z,11.20
2018-03-28T18:21:51.192Z,13.80
2018-03-28T18:24:23.686Z,13.60
2018-03-28T18:26:51.270Z,7.70
2018-03-28T18:29:19.759Z,9.73
2018-03-28T18:31:47.636Z,10.57
2018-03-28T18:34:14.841Z,11.13
2018-03-28T18:36:41.954Z,9.17
2018-03-28T18:39:09.282Z,9.20
2018-03-28T18:41:36.767Z,14.93
2018-03-28T18:44:04.691Z,22.80
2018-03-28T18:46:31.886Z,26.53
2018-03-28T18:48:59.426Z,27.73
2018-03-28T18:51:27.896Z,21.57
2018-03-28T18:53:56.187Z,16.60
2018-03-28T18:56:24.207Z,13.77
2018-03-28T18:58:53.264Z,19.17
2018-03-28T19:01:21.641Z,25.53
2018-03-28T19:03:50.732Z,27.67
2018-03-28T19:06:19.121Z,33.57
2018-03-28T19:08:47.599Z,43.47
2018-03-28T19:11:20.426Z,35.03
2018-03-28T19:13:48.000Z,27.43
2018-03-28T19:19:33.036Z,13.33
2018-03-28T19:22:00.615Z,13.97
2018-03-28T19:24:29.016Z,19.80
2018-03-28T19:26:57.038Z,17.20
2018-03-28T19:29:24.985Z,18.27
2018-03-28T19:31:52.600Z,21.37
2018-03-28T19:34:20.820Z,15.27
2018-03-28T19:36:49.147Z,10.57
2018-03-28T19:39:17.546Z,17.10
2018-03-28T19:41:45.799Z,14.40
2018-03-28T19:44:14.195Z,10.30
2018-03-28T19:46:42.661Z,11.37
2018-03-28T19:49:11.154Z,10.60
2018-03-28T19:51:38.716Z,10.37
2018-03-28T19:54:06.883Z,10.67
2018-03-28T19:56:34.897Z,8.73
2018-03-28T19:59:02.577Z,11.47
2018-03-28T20:01:30.000Z,9.63
2018-03-28T20:03:57.475Z,9.37
2018-03-28T20:06:37.698Z,14.13
2018-03-28T20:09:05.906Z,14.10
2018-03-28T20:11:33.290Z,14.60
2018-03-28T20:14:01.417Z,14.03
2018-03-28T20:19:37.039Z,16.60
2018-03-28T20:22:05.368Z,13.23
2018-03-28T20:24:34.491Z,12.53
2018-03-28T20:30:07.782Z,10.37
2018-03-28T20:32:35.050Z,10.00
2018-03-28T20:35:02.625Z,11.13
2018-03-28T20:37:30.472Z,10.53
2018-03-28T20:39:57.915Z,7.63
2018-03-28T20:42:33.272Z,7.50
2018-03-28T20:45:01.651Z,6.77
2018-03-28T20:47:29.851Z,9.97
2018-03-28T20:49:57.993Z,8.40
2018-03-28T20:52:26.058Z,9.47
2018-03-28T20:54:54.346Z,8.57
2018-03-28T20:57:22.818Z,8.50
2018-03-28T20:59:50.817Z,7.53
2018-03-28T21:02:18.154Z,8.50
2018-03-28T21:04:46.043Z,8.10
2018-03-28T21:07:13.034Z,9.77
2018-03-28T21:09:39.926Z,8.73
2018-03-28T21:12:14.609Z,9.00
2018-03-28T21:15:10.745Z,10.90
2018-03-28T21:20:34.949Z,10.67
2018-03-28T21:23:01.990Z,11.80
2018-03-28T21:25:28.844Z,12.23
2018-03-28T21:27:55.622Z,14.50
2018-03-28T21:30:23.548Z,10.70
2018-03-28T21:32:50.524Z,10.03
2018-03-28T21:35:17.544Z,11.63
2018-03-28T21:37:44.596Z,10.70
2018-03-28T21:40:11.555Z,12.47
2018-03-28T21:42:38.469Z,14.40
2018-03-28T21:45:05.362Z,10.13
2018-03-28T21:47:32.386Z,11.43
2018-03-28T21:49:59.331Z,10.93
2018-03-28T21:52:26.279Z,10.23
2018-03-28T21:54:53.328Z,10.97
2018-03-28T21:57:20.423Z,13.53
2018-03-28T21:59:48.160Z,10.60
2018-03-28T22:02:14.947Z,10.67
2018-03-28T22:04:42.649Z,9.33
2018-03-28T22:07:09.496Z,8.00
2018-03-28T22:09:36.451Z,8.43
2018-03-28T22:12:03.393Z,11.33
2018-03-28T22:14:30.236Z,9.23
2018-03-28T22:16:57.145Z,9.20
2018-03-28T22:19:25.984Z,7.97
2018-03-28T22:21:53.023Z,9.27
2018-03-28T22:24:19.969Z,10.90
2018-03-28T22:26:46.920Z,8.60
2018-03-28T22:29:20.826Z,8.40
2018-03-28T22:31:47.774Z,9.97
2018-03-28T22:34:14.822Z,8.53
2018-03-28T22:36:41.713Z,9.23
2018-03-28T22:39:09.441Z,11.30
2018-03-28T22:41:36.418Z,9.60
2018-03-28T22:44:04.148Z,11.13
2018-03-28T22:46:31.101Z,13.97
2018-03-28T22:48:59.575Z,8.80
2018-03-28T22:51:26.422Z,9.30
2018-03-28T22:53:54.088Z,8.80
2018-03-28T22:56:21.031Z,10.13
2018-03-28T22:58:47.880Z,8.27
2018-03-28T23:01:14.948Z,10.10
2018-03-28T23:03:41.871Z,10.70
2018-03-28T23:06:08.922Z,11.20
2018-03-28T23:08:35.977Z,8.07
2018-03-28T23:11:02.923Z,10.77
2018-03-28T23:13:29.971Z,10.90
2018-03-28T23:15:57.016Z,9.40
2018-03-28T23:18:23.877Z,11.50
2018-03-28T23:20:51.015Z,8.23
2018-03-28T23:23:18.072Z,8.17
2018-03-28T23:25:45.427Z,11.47
2018-03-28T23:28:12.478Z,9.47
2018-03-28T23:30:39.426Z,10.90
2018-03-28T23:33:06.477Z,12.83
2018-03-28T23:35:33.412Z,14.93
2018-03-28T23:38:00.370Z,11.63
2018-03-28T23:40:27.203Z,12.00
2018-03-28T23:42:54.256Z,10.97
2018-03-28T23:45:21.304Z,9.77
2018-03-28T23:47:48.249Z,12.13
2018-03-28T23:50:15.913Z,9.37
2018-03-28T23:52:42.965Z,11.67
2018-03-28T23:55:10.022Z,9.80
2018-03-28T23:57:37.071Z,9.00
